sensor_id;sensor_type;location;lat;lon;timestamp;P1;durP1;ratioP1;P2;durP2;ratioP2
23743;SDS011;12052;53.478;10.182;2022-08-19T00:00:20;15.38;;;9.13;;
23743;SDS011;12052;53.478;10.182;2022-08-19T00:02:46;16.77;;;9.35;;
23743;SDS011;12052;53.478;10.182;2022-08-19T00:05:12;15.73;;;8.88;;
23743;SDS011;12052;53.478;10.182;2022-08-19T00:07:40;16.23;;;8.85;;
23743;SDS011;12052;53.478;10.182;2022-08-19T00:10:08;14.77;;;9.60;;
23743;SDS011;12052;53.478;10.182;2022-08-19T00:12:34;16.05;;;9.75;;
23743;SDS011;12052;53.478;10.182;2022-08-19T00:15:03;17.25;;;10.63;;
23743;SDS011;12052;53.478;10.182;2022-08-19T00:17:36;17.92;;;9.27;;
23743;SDS011;12052;53.478;10.182;2022-08-19T00:20:03;16.73;;;10.02;;
23743;SDS011;12052;53.478;10.182;2022-08-19T00:22:28;18.23;;;9.88;;
23743;SDS011;12052;53.478;10.182;2022-08-19T00:24:54;21.98;;;11.40;;
23743;SDS011;12052;53.478;10.182;2022-08-19T00:27:20;19.45;;;10.52;;
23743;SDS011;12052;53.478;10.182;2022-08-19T00:29:45;18.33;;;10.77;;
23743;SDS011;12052;53.478;10.182;2022-08-19T00:32:11;20.33;;;10.48;;
23743;SDS011;12052;53.478;10.182;2022-08-19T00:34:37;19.85;;;10.75;;
23743;SDS011;12052;53.478;10.182;2022-08-19T00:37:03;20.05;;;12.25;;
23743;SDS011;12052;53.478;10.182;2022-08-19T00:39:28;17.00;;;10.30;;
23743;SDS011;12052;53.478;10.182;2022-08-19T00:41:55;25.63;;;12.82;;
23743;SDS011;12052;53.478;10.182;2022-08-19T00:44:23;18.95;;;11.73;;
23743;SDS011;12052;53.478;10.182;2022-08-19T00:46:51;19.45;;;11.63;;
23743;SDS011;12052;53.478;10.182;2022-08-19T00:49:25;18.75;;;11.75;;
23743;SDS011;12052;53.478;10.182;2022-08-19T00:51:53;19.85;;;11.80;;
23743;SDS011;12052;53.478;10.182;2022-08-19T00:54:24;23.13;;;13.57;;
23743;SDS011;12052;53.478;10.182;2022-08-19T00:56:50;19.35;;;12.52;;
23743;SDS011;12052;53.478;10.182;2022-08-19T00:59:16;21.17;;;13.10;;
23743;SDS011;12052;53.478;10.182;2022-08-19T01:01:44;24.95;;;13.23;;
23743;SDS011;12052;53.478;10.182;2022-08-19T01:04:11;24.15;;;13.50;;
23743;SDS011;12052;53.478;10.182;2022-08-19T01:06:38;23.50;;;14.20;;
23743;SDS011;12052;53.478;10.182;2022-08-19T01:09:06;25.38;;;14.25;;
23743;SDS011;12052;53.478;10.182;2022-08-19T01:11:33;23.52;;;13.77;;
23743;SDS011;12052;53.478;10.182;2022-08-19T01:14:01;21.30;;;14.07;;
23743;SDS011;12052;53.478;10.182;2022-08-19T01:16:27;24.77;;;14.52;;
23743;SDS011;12052;53.478;10.182;2022-08-19T01:18:54;25.77;;;15.10;;
23743;SDS011;12052;53.478;10.182;2022-08-19T01:23:57;23.60;;;15.48;;
23743;SDS011;12052;53.478;10.182;2022-08-19T01:26:24;29.48;;;14.82;;
23743;SDS011;12052;53.478;10.182;2022-08-19T01:28:51;29.02;;;15.65;;
23743;SDS011;12052;53.478;10.182;2022-08-19T01:31:20;29.35;;;15.20;;
23743;SDS011;12052;53.478;10.182;2022-08-19T01:33:48;28.13;;;15.77;;
23743;SDS011;12052;53.478;10.182;2022-08-19T01:36:21;32.83;;;16.40;;
23743;SDS011;12052;53.478;10.182;2022-08-19T01:39:00;30.40;;;16.13;;
23743;SDS011;12052;53.478;10.182;2022-08-19T01:41:30;32.83;;;16.38;;
23743;SDS011;12052;53.478;10.182;2022-08-19T01:43:56;23.98;;;15.60;;
23743;SDS011;12052;53.478;10.182;2022-08-19T01:46:21;27.77;;;15.13;;
23743;SDS011;12052;53.478;10.182;2022-08-19T01:48:47;27.65;;;14.80;;
23743;SDS011;12052;53.478;10.182;2022-08-19T01:51:13;26.75;;;15.27;;
23743;SDS011;12052;53.478;10.182;2022-08-19T01:53:39;23.42;;;13.60;;
23743;SDS011;12052;53.478;10.182;2022-08-19T01:56:05;26.48;;;14.60;;
23743;SDS011;12052;53.478;10.182;2022-08-19T01:58:35;29.27;;;16.23;;
23743;SDS011;12052;53.478;10.182;2022-08-19T02:01:06;28.17;;;15.45;;
23743;SDS011;12052;53.478;10.182;2022-08-19T02:03:33;30.13;;;16.75;;
23743;SDS011;12052;53.478;10.182;2022-08-19T02:06:00;34.42;;;16.30;;
23743;SDS011;12052;53.478;10.182;2022-08-19T02:08:28;38.38;;;18.13;;
23743;SDS011;12052;53.478;10.182;2022-08-19T02:10:54;34.47;;;19.08;;
23743;SDS011;12052;53.478;10.182;2022-08-19T02:13:21;32.83;;;17.30;;
23743;SDS011;12052;53.478;10.182;2022-08-19T02:15:48;38.92;;;18.15;;
23743;SDS011;12052;53.478;10.182;2022-08-19T02:18:14;35.03;;;18.10;;
23743;SDS011;12052;53.478;10.182;2022-08-19T02:20:40;38.33;;;19.15;;
23743;SDS011;12052;53.478;10.182;2022-08-19T02:23:07;34.45;;;18.70;;
23743;SDS011;12052;53.478;10.182;2022-08-19T02:25:34;32.85;;;17.42;;
23743;SDS011;12052;53.478;10.182;2022-08-19T02:27:59;32.78;;;18.17;;
23743;SDS011;12052;53.478;10.182;2022-08-19T02:30:25;35.03;;;18.50;;
23743;SDS011;12052;53.478;10.182;2022-08-19T02:32:51;37.45;;;17.33;;
23743;SDS011;12052;53.478;10.182;2022-08-19T02:35:17;33.15;;;17.42;;
23743;SDS011;12052;53.478;10.182;2022-08-19T02:37:43;30.88;;;17.10;;
23743;SDS011;12052;53.478;10.182;2022-08-19T02:40:29;30.80;;;17.33;;
23743;SDS011;12052;53.478;10.182;2022-08-19T02:42:59;29.58;;;16.10;;
23743;SDS011;12052;53.478;10.182;2022-08-19T02:45:27;31.17;;;16.42;;
23743;SDS011;12052;53.478;10.182;2022-08-19T02:47:56;31.63;;;15.85;;
23743;SDS011;12052;53.478;10.182;2022-08-19T02:50:22;29.50;;;16.48;;
23743;SDS011;12052;53.478;10.182;2022-08-19T02:52:47;30.70;;;16.70;;
23743;SDS011;12052;53.478;10.182;2022-08-19T02:55:13;26.05;;;15.93;;
23743;SDS011;12052;53.478;10.182;2022-08-19T02:57:38;28.35;;;15.95;;
23743;SDS011;12052;53.478;10.182;2022-08-19T03:00:05;31.27;;;15.98;;
23743;SDS011;12052;53.478;10.182;2022-08-19T03:02:32;28.00;;;14.65;;
23743;SDS011;12052;53.478;10.182;2022-08-19T03:04:57;24.38;;;14.57;;
23743;SDS011;12052;53.478;10.182;2022-08-19T03:07:23;29.88;;;15.05;;
23743;SDS011;12052;53.478;10.182;2022-08-19T03:09:48;27.33;;;15.60;;
23743;SDS011;12052;53.478;10.182;2022-08-19T03:12:14;29.60;;;14.75;;
23743;SDS011;12052;53.478;10.182;2022-08-19T03:14:39;27.33;;;15.98;;
23743;SDS011;12052;53.478;10.182;2022-08-19T03:17:06;27.35;;;14.88;;
23743;SDS011;12052;53.478;10.182;2022-08-19T03:19:32;25.20;;;14.85;;
23743;SDS011;12052;53.478;10.182;2022-08-19T03:21:58;27.08;;;15.82;;
23743;SDS011;12052;53.478;10.182;2022-08-19T03:24:23;29.48;;;14.93;;
23743;SDS011;12052;53.478;10.182;2022-08-19T03:26:51;31.33;;;15.70;;
23743;SDS011;12052;53.478;10.182;2022-08-19T03:29:18;29.88;;;15.98;;
23743;SDS011;12052;53.478;10.182;2022-08-19T03:31:45;29.95;;;14.38;;
23743;SDS011;12052;53.478;10.182;2022-08-19T03:34:11;28.73;;;14.80;;
23743;SDS011;12052;53.478;10.182;2022-08-19T03:36:39;28.80;;;15.50;;
23743;SDS011;12052;53.478;10.182;2022-08-19T03:39:05;31.55;;;16.25;;
23743;SDS011;12052;53.478;10.182;2022-08-19T03:41:36;27.17;;;14.57;;
23743;SDS011;12052;53.478;10.182;2022-08-19T03:44:04;29.88;;;15.52;;
23743;SDS011;12052;53.478;10.182;2022-08-19T03:46:31;27.70;;;15.07;;
23743;SDS011;12052;53.478;10.182;2022-08-19T03:48:58;31.80;;;14.48;;
23743;SDS011;12052;53.478;10.182;2022-08-19T03:51:29;32.97;;;15.63;;
23743;SDS011;12052;53.478;10.182;2022-08-19T03:53:56;31.20;;;15.63;;
23743;SDS011;12052;53.478;10.182;2022-08-19T03:56:25;29.98;;;14.30;;
23743;SDS011;12052;53.478;10.182;2022-08-19T03:58:52;32.53;;;15.80;;
23743;SDS011;12052;53.478;10.182;2022-08-19T04:01:19;37.03;;;16.20;;
23743;SDS011;12052;53.478;10.182;2022-08-19T04:03:47;34.55;;;16.45;;
23743;SDS011;12052;53.478;10.182;2022-08-19T04:08:40;42.47;;;17.98;;
23743;SDS011;12052;53.478;10.182;2022-08-19T04:11:18;42.85;;;17.45;;
23743;SDS011;12052;53.478;10.182;2022-08-19T04:13:47;37.65;;;17.67;;
23743;SDS011;12052;53.478;10.182;2022-08-19T04:16:16;42.90;;;17.33;;
23743;SDS011;12052;53.478;10.182;2022-08-19T04:18:42;45.45;;;19.02;;
23743;SDS011;12052;53.478;10.182;2022-08-19T04:21:14;51.42;;;20.02;;
23743;SDS011;12052;53.478;10.182;2022-08-19T04:23:41;45.30;;;18.65;;
23743;SDS011;12052;53.478;10.182;2022-08-19T04:26:07;49.47;;;19.55;;
23743;SDS011;12052;53.478;10.182;2022-08-19T04:28:39;47.57;;;18.23;;
23743;SDS011;12052;53.478;10.182;2022-08-19T04:31:04;45.42;;;19.35;;
23743;SDS011;12052;53.478;10.182;2022-08-19T04:33:30;41.22;;;17.60;;
23743;SDS011;12052;53.478;10.182;2022-08-19T04:35:56;54.47;;;19.50;;
23743;SDS011;12052;53.478;10.182;2022-08-19T04:38:23;47.25;;;17.90;;
23743;SDS011;12052;53.478;10.182;2022-08-19T04:40:49;47.80;;;17.58;;
23743;SDS011;12052;53.478;10.182;2022-08-19T04:43:35;43.45;;;18.60;;
23743;SDS011;12052;53.478;10.182;2022-08-19T04:46:09;43.28;;;18.77;;
23743;SDS011;12052;53.478;10.182;2022-08-19T04:48:36;50.33;;;19.75;;
23743;SDS011;12052;53.478;10.182;2022-08-19T04:51:05;45.97;;;17.75;;
23743;SDS011;12052;53.478;10.182;2022-08-19T04:53:34;36.53;;;17.50;;
23743;SDS011;12052;53.478;10.182;2022-08-19T04:56:03;46.60;;;17.88;;
23743;SDS011;12052;53.478;10.182;2022-08-19T04:58:32;45.13;;;18.33;;
23743;SDS011;12052;53.478;10.182;2022-08-19T05:00:58;43.47;;;17.60;;
23743;SDS011;12052;53.478;10.182;2022-08-19T05:03:24;41.17;;;16.95;;
23743;SDS011;12052;53.478;10.182;2022-08-19T05:05:51;36.95;;;16.45;;
23743;SDS011;12052;53.478;10.182;2022-08-19T05:08:18;37.20;;;16.73;;
23743;SDS011;12052;53.478;10.182;2022-08-19T05:10:47;39.40;;;16.88;;
23743;SDS011;12052;53.478;10.182;2022-08-19T05:13:14;36.35;;;16.80;;
23743;SDS011;12052;53.478;10.182;2022-08-19T05:15:41;36.10;;;16.92;;
23743;SDS011;12052;53.478;10.182;2022-08-19T05:18:07;39.42;;;16.90;;
23743;SDS011;12052;53.478;10.182;2022-08-19T05:20:51;34.78;;;16.52;;
23743;SDS011;12052;53.478;10.182;2022-08-19T05:23:35;36.10;;;17.50;;
23743;SDS011;12052;53.478;10.182;2022-08-19T05:26:00;38.65;;;16.98;;
23743;SDS011;12052;53.478;10.182;2022-08-19T05:28:26;38.85;;;18.30;;
23743;SDS011;12052;53.478;10.182;2022-08-19T05:30:52;45.15;;;19.27;;
23743;SDS011;12052;53.478;10.182;2022-08-19T05:33:20;39.00;;;18.58;;
23743;SDS011;12052;53.478;10.182;2022-08-19T05:35:47;53.75;;;21.13;;
23743;SDS011;12052;53.478;10.182;2022-08-19T05:38:14;54.88;;;20.65;;
23743;SDS011;12052;53.478;10.182;2022-08-19T05:40:40;46.10;;;20.27;;
23743;SDS011;12052;53.478;10.182;2022-08-19T05:43:08;54.17;;;20.92;;
23743;SDS011;12052;53.478;10.182;2022-08-19T05:45:38;55.78;;;21.35;;
23743;SDS011;12052;53.478;10.182;2022-08-19T05:48:05;50.80;;;21.02;;
23743;SDS011;12052;53.478;10.182;2022-08-19T05:50:30;49.30;;;21.35;;
23743;SDS011;12052;53.478;10.182;2022-08-19T05:52:56;43.42;;;21.25;;
23743;SDS011;12052;53.478;10.182;2022-08-19T05:55:21;47.90;;;20.80;;
23743;SDS011;12052;53.478;10.182;2022-08-19T05:57:48;47.70;;;21.13;;
23743;SDS011;12052;53.478;10.182;2022-08-19T06:00:14;48.35;;;21.30;;
23743;SDS011;12052;53.478;10.182;2022-08-19T06:02:40;49.40;;;23.10;;
23743;SDS011;12052;53.478;10.182;2022-08-19T06:05:06;56.83;;;22.58;;
23743;SDS011;12052;53.478;10.182;2022-08-19T06:07:34;59.53;;;23.13;;
23743;SDS011;12052;53.478;10.182;2022-08-19T06:10:03;60.25;;;23.52;;
23743;SDS011;12052;53.478;10.182;2022-08-19T06:12:31;54.53;;;22.70;;
23743;SDS011;12052;53.478;10.182;2022-08-19T06:14:59;56.17;;;22.52;;
23743;SDS011;12052;53.478;10.182;2022-08-19T06:17:29;54.50;;;23.08;;
23743;SDS011;12052;53.478;10.182;2022-08-19T06:19:55;60.72;;;23.50;;
23743;SDS011;12052;53.478;10.182;2022-08-19T06:22:21;56.95;;;23.15;;
23743;SDS011;12052;53.478;10.182;2022-08-19T06:24:46;51.05;;;22.15;;
23743;SDS011;12052;53.478;10.182;2022-08-19T06:27:12;55.83;;;21.77;;
23743;SDS011;12052;53.478;10.182;2022-08-19T06:29:38;54.33;;;22.73;;
23743;SDS011;12052;53.478;10.182;2022-08-19T06:32:04;51.72;;;22.38;;
23743;SDS011;12052;53.478;10.182;2022-08-19T06:34:30;52.17;;;23.85;;
23743;SDS011;12052;53.478;10.182;2022-08-19T06:36:59;55.55;;;23.52;;
23743;SDS011;12052;53.478;10.182;2022-08-19T06:39:27;53.17;;;23.70;;
23743;SDS011;12052;53.478;10.182;2022-08-19T06:41:56;57.83;;;23.20;;
23743;SDS011;12052;53.478;10.182;2022-08-19T06:44:23;57.88;;;23.27;;
23743;SDS011;12052;53.478;10.182;2022-08-19T06:46:54;52.13;;;22.67;;
23743;SDS011;12052;53.478;10.182;2022-08-19T06:49:20;60.60;;;22.83;;
23743;SDS011;12052;53.478;10.182;2022-08-19T06:51:47;53.95;;;22.55;;
23743;SDS011;12052;53.478;10.182;2022-08-19T06:54:15;57.03;;;23.15;;
23743;SDS011;12052;53.478;10.182;2022-08-19T06:56:42;44.08;;;21.80;;
23743;SDS011;12052;53.478;10.182;2022-08-19T06:59:12;42.40;;;21.70;;
23743;SDS011;12052;53.478;10.182;2022-08-19T07:01:44;50.55;;;21.38;;
23743;SDS011;12052;53.478;10.182;2022-08-19T07:04:14;43.72;;;21.20;;
23743;SDS011;12052;53.478;10.182;2022-08-19T07:06:42;44.72;;;21.10;;
23743;SDS011;12052;53.478;10.182;2022-08-19T07:09:09;44.08;;;20.45;;
23743;SDS011;12052;53.478;10.182;2022-08-19T07:11:36;46.20;;;21.17;;
23743;SDS011;12052;53.478;10.182;2022-08-19T07:14:02;49.67;;;21.55;;
23743;SDS011;12052;53.478;10.182;2022-08-19T07:16:28;47.20;;;19.48;;
23743;SDS011;12052;53.478;10.182;2022-08-19T07:18:54;43.85;;;19.38;;
23743;SDS011;12052;53.478;10.182;2022-08-19T07:21:25;42.90;;;20.13;;
23743;SDS011;12052;53.478;10.182;2022-08-19T07:23:53;36.80;;;19.10;;
23743;SDS011;12052;53.478;10.182;2022-08-19T07:26:20;43.90;;;19.10;;
23743;SDS011;12052;53.478;10.182;2022-08-19T07:28:50;41.28;;;19.25;;
23743;SDS011;12052;53.478;10.182;2022-08-19T07:31:17;45.03;;;19.23;;
23743;SDS011;12052;53.478;10.182;2022-08-19T07:33:45;39.85;;;18.33;;
23743;SDS011;12052;53.478;10.182;2022-08-19T07:36:13;40.30;;;19.67;;
23743;SDS011;12052;53.478;10.182;2022-08-19T07:38:41;37.30;;;18.20;;
23743;SDS011;12052;53.478;10.182;2022-08-19T07:41:10;39.42;;;19.13;;
23743;SDS011;12052;53.478;10.182;2022-08-19T07:43:37;42.63;;;19.85;;
23743;SDS011;12052;53.478;10.182;2022-08-19T07:46:03;40.17;;;20.35;;
23743;SDS011;12052;53.478;10.182;2022-08-19T07:48:29;40.75;;;19.73;;
23743;SDS011;12052;53.478;10.182;2022-08-19T07:50:57;47.58;;;20.50;;
23743;SDS011;12052;53.478;10.182;2022-08-19T07:53:26;52.42;;;22.48;;
23743;SDS011;12052;53.478;10.182;2022-08-19T07:55:54;48.67;;;22.13;;
23743;SDS011;12052;53.478;10.182;2022-08-19T07:58:20;47.92;;;23.60;;
23743;SDS011;12052;53.478;10.182;2022-08-19T08:00:48;47.05;;;21.75;;
23743;SDS011;12052;53.478;10.182;2022-08-19T08:03:16;52.22;;;22.33;;
23743;SDS011;12052;53.478;10.182;2022-08-19T08:05:43;44.92;;;20.35;;
23743;SDS011;12052;53.478;10.182;2022-08-19T08:08:28;48.10;;;20.70;;
23743;SDS011;12052;53.478;10.182;2022-08-19T08:11:12;46.47;;;20.10;;
23743;SDS011;12052;53.478;10.182;2022-08-19T08:13:39;49.80;;;20.15;;
23743;SDS011;12052;53.478;10.182;2022-08-19T08:16:06;42.03;;;20.15;;
23743;SDS011;12052;53.478;10.182;2022-08-19T08:18:32;46.88;;;18.88;;
23743;SDS011;12052;53.478;10.182;2022-08-19T08:20:59;35.40;;;18.73;;
23743;SDS011;12052;53.478;10.182;2022-08-19T08:23:24;36.35;;;17.45;;
23743;SDS011;12052;53.478;10.182;2022-08-19T08:25:51;42.25;;;18.23;;
23743;SDS011;12052;53.478;10.182;2022-08-19T08:28:19;36.50;;;18.63;;
23743;SDS011;12052;53.478;10.182;2022-08-19T08:30:46;38.65;;;17.77;;
23743;SDS011;12052;53.478;10.182;2022-08-19T08:33:13;36.05;;;18.08;;
23743;SDS011;12052;53.478;10.182;2022-08-19T08:35:42;39.13;;;16.80;;
23743;SDS011;12052;53.478;10.182;2022-08-19T08:38:07;38.60;;;15.68;;
23743;SDS011;12052;53.478;10.182;2022-08-19T08:43:22;35.67;;;16.55;;
23743;SDS011;12052;53.478;10.182;2022-08-19T08:46:00;35.35;;;15.10;;
23743;SDS011;12052;53.478;10.182;2022-08-19T08:51:10;35.00;;;16.35;;
23743;SDS011;12052;53.478;10.182;2022-08-19T08:53:40;29.02;;;13.93;;
23743;SDS011;12052;53.478;10.182;2022-08-19T08:56:09;25.73;;;13.95;;
23743;SDS011;12052;53.478;10.182;2022-08-19T08:58:48;25.23;;;13.02;;
23743;SDS011;12052;53.478;10.182;2022-08-19T09:01:21;30.98;;;14.57;;
23743;SDS011;12052;53.478;10.182;2022-08-19T09:03:47;29.92;;;14.23;;
23743;SDS011;12052;53.478;10.182;2022-08-19T09:08:59;30.92;;;14.55;;
23743;SDS011;12052;53.478;10.182;2022-08-19T09:16:57;31.67;;;14.77;;
23743;SDS011;12052;53.478;10.182;2022-08-19T09:19:23;28.20;;;14.80;;
23743;SDS011;12052;53.478;10.182;2022-08-19T09:21:48;33.35;;;15.68;;
23743;SDS011;12052;53.478;10.182;2022-08-19T09:24:15;32.95;;;15.95;;
23743;SDS011;12052;53.478;10.182;2022-08-19T09:26:41;32.67;;;15.70;;
23743;SDS011;12052;53.478;10.182;2022-08-19T09:29:08;35.38;;;15.75;;
23743;SDS011;12052;53.478;10.182;2022-08-19T09:31:34;36.53;;;17.63;;
23743;SDS011;12052;53.478;10.182;2022-08-19T09:34:00;36.20;;;17.42;;
23743;SDS011;12052;53.478;10.182;2022-08-19T09:36:28;40.80;;;16.75;;
23743;SDS011;12052;53.478;10.182;2022-08-19T09:38:55;32.42;;;15.35;;
23743;SDS011;12052;53.478;10.182;2022-08-19T09:41:22;37.47;;;17.52;;
23743;SDS011;12052;53.478;10.182;2022-08-19T09:43:50;37.38;;;17.50;;
23743;SDS011;12052;53.478;10.182;2022-08-19T09:46:17;40.40;;;17.52;;
23743;SDS011;12052;53.478;10.182;2022-08-19T09:48:45;38.67;;;16.90;;
23743;SDS011;12052;53.478;10.182;2022-08-19T09:51:14;35.88;;;16.80;;
23743;SDS011;12052;53.478;10.182;2022-08-19T09:53:43;44.75;;;17.15;;
23743;SDS011;12052;53.478;10.182;2022-08-19T09:56:10;44.22;;;17.48;;
23743;SDS011;12052;53.478;10.182;2022-08-19T09:58:37;43.13;;;17.17;;
23743;SDS011;12052;53.478;10.182;2022-08-19T10:01:03;41.00;;;18.05;;
23743;SDS011;12052;53.478;10.182;2022-08-19T10:03:30;34.22;;;16.88;;
23743;SDS011;12052;53.478;10.182;2022-08-19T10:05:58;32.38;;;16.25;;
23743;SDS011;12052;53.478;10.182;2022-08-19T10:08:27;38.05;;;17.13;;
23743;SDS011;12052;53.478;10.182;2022-08-19T10:10:55;43.22;;;18.15;;
23743;SDS011;12052;53.478;10.182;2022-08-19T10:13:21;38.60;;;16.40;;
23743;SDS011;12052;53.478;10.182;2022-08-19T10:15:51;34.97;;;16.65;;
23743;SDS011;12052;53.478;10.182;2022-08-19T10:18:18;47.50;;;16.85;;
23743;SDS011;12052;53.478;10.182;2022-08-19T10:20:46;37.47;;;16.52;;
23743;SDS011;12052;53.478;10.182;2022-08-19T10:23:13;42.33;;;17.90;;
23743;SDS011;12052;53.478;10.182;2022-08-19T10:25:40;36.20;;;16.75;;
23743;SDS011;12052;53.478;10.182;2022-08-19T10:28:06;35.95;;;16.48;;
23743;SDS011;12052;53.478;10.182;2022-08-19T10:30:32;41.42;;;17.98;;
23743;SDS011;12052;53.478;10.182;2022-08-19T10:33:00;32.13;;;15.60;;
23743;SDS011;12052;53.478;10.182;2022-08-19T10:35:25;37.03;;;17.23;;
23743;SDS011;12052;53.478;10.182;2022-08-19T10:37:53;34.42;;;15.65;;
23743;SDS011;12052;53.478;10.182;2022-08-19T10:40:18;33.33;;;17.00;;
23743;SDS011;12052;53.478;10.182;2022-08-19T10:42:44;36.47;;;16.73;;
23743;SDS011;12052;53.478;10.182;2022-08-19T10:45:10;36.85;;;16.00;;
23743;SDS011;12052;53.478;10.182;2022-08-19T10:47:36;35.58;;;15.95;;
23743;SDS011;12052;53.478;10.182;2022-08-19T10:50:02;35.45;;;16.65;;
23743;SDS011;12052;53.478;10.182;2022-08-19T10:52:48;36.00;;;15.85;;
23743;SDS011;12052;53.478;10.182;2022-08-19T10:55:14;30.17;;;14.13;;
23743;SDS011;12052;53.478;10.182;2022-08-19T10:58:14;31.17;;;15.55;;
23743;SDS011;12052;53.478;10.182;2022-08-19T11:00:42;35.60;;;15.88;;
23743;SDS011;12052;53.478;10.182;2022-08-19T11:03:10;30.90;;;15.25;;
23743;SDS011;12052;53.478;10.182;2022-08-19T11:05:36;27.83;;;14.63;;
23743;SDS011;12052;53.478;10.182;2022-08-19T11:08:03;26.17;;;13.88;;
23743;SDS011;12052;53.478;10.182;2022-08-19T11:10:29;35.88;;;15.85;;
23743;SDS011;12052;53.478;10.182;2022-08-19T11:12:54;33.50;;;14.10;;
23743;SDS011;12052;53.478;10.182;2022-08-19T11:15:20;31.38;;;14.60;;
23743;SDS011;12052;53.478;10.182;2022-08-19T11:17:46;30.90;;;14.35;;
23743;SDS011;12052;53.478;10.182;2022-08-19T11:20:12;35.63;;;15.45;;
23743;SDS011;12052;53.478;10.182;2022-08-19T11:22:40;29.23;;;15.30;;
23743;SDS011;12052;53.478;10.182;2022-08-19T11:25:06;31.63;;;14.68;;
23743;SDS011;12052;53.478;10.182;2022-08-19T11:27:33;32.10;;;15.90;;
23743;SDS011;12052;53.478;10.182;2022-08-19T11:30:02;34.88;;;15.55;;
23743;SDS011;12052;53.478;10.182;2022-08-19T11:32:28;33.22;;;14.02;;
23743;SDS011;12052;53.478;10.182;2022-08-19T11:34:54;31.05;;;15.07;;
23743;SDS011;12052;53.478;10.182;2022-08-19T11:37:19;33.30;;;14.95;;
23743;SDS011;12052;53.478;10.182;2022-08-19T11:39:45;33.08;;;15.32;;
23743;SDS011;12052;53.478;10.182;2022-08-19T11:42:10;32.47;;;15.73;;
23743;SDS011;12052;53.478;10.182;2022-08-19T11:44:55;30.10;;;15.77;;
23743;SDS011;12052;53.478;10.182;2022-08-19T11:47:20;33.53;;;15.70;;
23743;SDS011;12052;53.478;10.182;2022-08-19T11:49:46;31.92;;;16.23;;
23743;SDS011;12052;53.478;10.182;2022-08-19T11:52:12;38.95;;;17.27;;
23743;SDS011;12052;53.478;10.182;2022-08-19T11:54:38;34.38;;;16.10;;
23743;SDS011;12052;53.478;10.182;2022-08-19T11:57:03;32.60;;;15.43;;
23743;SDS011;12052;53.478;10.182;2022-08-19T11:59:29;33.10;;;15.45;;
23743;SDS011;12052;53.478;10.182;2022-08-19T12:01:55;32.00;;;15.65;;
23743;SDS011;12052;53.478;10.182;2022-08-19T12:04:21;37.17;;;16.77;;
23743;SDS011;12052;53.478;10.182;2022-08-19T12:06:47;32.08;;;16.23;;
23743;SDS011;12052;53.478;10.182;2022-08-19T12:09:15;36.35;;;15.95;;
23743;SDS011;12052;53.478;10.182;2022-08-19T12:11:42;30.58;;;15.77;;
23743;SDS011;12052;53.478;10.182;2022-08-19T12:14:09;33.33;;;16.67;;
23743;SDS011;12052;53.478;10.182;2022-08-19T12:16:36;35.88;;;16.90;;
23743;SDS011;12052;53.478;10.182;2022-08-19T12:19:03;33.30;;;15.93;;
23743;SDS011;12052;53.478;10.182;2022-08-19T12:21:31;32.50;;;16.25;;
23743;SDS011;12052;53.478;10.182;2022-08-19T12:23:59;34.22;;;16.92;;
23743;SDS011;12052;53.478;10.182;2022-08-19T12:26:27;32.63;;;17.27;;
23743;SDS011;12052;53.478;10.182;2022-08-19T12:28:54;33.47;;;17.35;;
23743;SDS011;12052;53.478;10.182;2022-08-19T12:31:20;36.40;;;15.68;;
23743;SDS011;12052;53.478;10.182;2022-08-19T12:33:46;34.22;;;16.73;;
23743;SDS011;12052;53.478;10.182;2022-08-19T12:36:12;32.08;;;15.45;;
23743;SDS011;12052;53.478;10.182;2022-08-19T12:38:40;30.98;;;15.30;;
23743;SDS011;12052;53.478;10.182;2022-08-19T12:41:06;33.60;;;15.65;;
23743;SDS011;12052;53.478;10.182;2022-08-19T12:43:36;28.13;;;15.95;;
23743;SDS011;12052;53.478;10.182;2022-08-19T12:46:06;30.48;;;14.95;;
23743;SDS011;12052;53.478;10.182;2022-08-19T12:48:33;27.58;;;14.75;;
23743;SDS011;12052;53.478;10.182;2022-08-19T12:50:59;29.77;;;14.63;;
23743;SDS011;12052;53.478;10.182;2022-08-19T12:53:26;27.08;;;14.73;;
23743;SDS011;12052;53.478;10.182;2022-08-19T12:55:57;25.58;;;14.05;;
23743;SDS011;12052;53.478;10.182;2022-08-19T12:58:24;21.75;;;13.38;;
23743;SDS011;12052;53.478;10.182;2022-08-19T13:00:51;21.45;;;13.02;;
23743;SDS011;12052;53.478;10.182;2022-08-19T13:03:16;24.30;;;13.30;;
23743;SDS011;12052;53.478;10.182;2022-08-19T13:05:42;24.83;;;13.00;;
23743;SDS011;12052;53.478;10.182;2022-08-19T13:08:08;26.30;;;13.27;;
23743;SDS011;12052;53.478;10.182;2022-08-19T13:10:34;20.85;;;12.80;;
23743;SDS011;12052;53.478;10.182;2022-08-19T13:13:05;18.73;;;11.18;;
23743;SDS011;12052;53.478;10.182;2022-08-19T13:15:33;23.20;;;12.75;;
23743;SDS011;12052;53.478;10.182;2022-08-19T13:20:31;22.83;;;12.93;;
23743;SDS011;12052;53.478;10.182;2022-08-19T13:22:56;19.55;;;12.80;;
23743;SDS011;12052;53.478;10.182;2022-08-19T13:25:22;23.73;;;12.43;;
23743;SDS011;12052;53.478;10.182;2022-08-19T13:27:48;23.45;;;12.95;;
23743;SDS011;12052;53.478;10.182;2022-08-19T13:30:14;21.73;;;12.63;;
23743;SDS011;12052;53.478;10.182;2022-08-19T13:33:00;22.42;;;11.82;;
23743;SDS011;12052;53.478;10.182;2022-08-19T13:35:42;22.50;;;12.27;;
23743;SDS011;12052;53.478;10.182;2022-08-19T13:38:12;20.45;;;12.23;;
23743;SDS011;12052;53.478;10.182;2022-08-19T13:40:39;24.05;;;12.95;;
23743;SDS011;12052;53.478;10.182;2022-08-19T13:43:05;16.92;;;11.38;;
23743;SDS011;12052;53.478;10.182;2022-08-19T13:45:33;20.00;;;11.88;;
23743;SDS011;12052;53.478;10.182;2022-08-19T13:47:59;17.73;;;11.50;;
23743;SDS011;12052;53.478;10.182;2022-08-19T13:50:27;18.08;;;11.25;;
23743;SDS011;12052;53.478;10.182;2022-08-19T13:52:56;19.38;;;12.43;;
23743;SDS011;12052;53.478;10.182;2022-08-19T13:55:22;18.05;;;11.07;;
23743;SDS011;12052;53.478;10.182;2022-08-19T13:57:56;22.02;;;12.80;;
23743;SDS011;12052;53.478;10.182;2022-08-19T14:00:24;17.42;;;11.05;;
23743;SDS011;12052;53.478;10.182;2022-08-19T14:02:52;17.75;;;11.88;;
23743;SDS011;12052;53.478;10.182;2022-08-19T14:05:19;18.58;;;11.57;;
23743;SDS011;12052;53.478;10.182;2022-08-19T14:07:45;20.40;;;11.40;;
23743;SDS011;12052;53.478;10.182;2022-08-19T14:10:13;18.95;;;11.38;;
23743;SDS011;12052;53.478;10.182;2022-08-19T14:12:40;18.63;;;11.65;;
23743;SDS011;12052;53.478;10.182;2022-08-19T14:15:07;18.98;;;10.90;;
23743;SDS011;12052;53.478;10.182;2022-08-19T14:17:34;15.32;;;9.98;;
23743;SDS011;12052;53.478;10.182;2022-08-19T14:20:00;20.08;;;10.55;;
23743;SDS011;12052;53.478;10.182;2022-08-19T14:22:29;20.67;;;11.93;;
23743;SDS011;12052;53.478;10.182;2022-08-19T14:24:56;17.30;;;10.73;;
23743;SDS011;12052;53.478;10.182;2022-08-19T14:27:22;19.25;;;11.82;;
23743;SDS011;12052;53.478;10.182;2022-08-19T14:29:50;17.42;;;11.05;;
23743;SDS011;12052;53.478;10.182;2022-08-19T14:32:16;16.25;;;10.88;;